John Murtha Johnstown Cambria County Airport
KJST : rendu visible

Aérodrome :











RETROUVEZ-NOUS SUR...

 
LOGIN :

S'inscrire | Disclaimer

   EN    FR    IT 

 









Légende :    VFR   VFR Marginal   IFR   IFR Intensif   IFR Très Intensif
Visi : 
Plafond : 
>= 8 km
>= 3000ft
5 à 8 km
1000 à 3000 ft
1500m à 5 km
500 à 1000 ft
800 à 1500m
200 à 500 ft
< 800m
< 200 ft
Symboles :   Orages  Brouillard  Fortes neiges  Fortes précipitations  Vent > 20 kt






- Altitude de l'aérodrome : 2284 ft
- Code IATA : JST


KJST - John Murtha Johnstown Cambria County

DERNIER METAR :
  • 221127Z AUTO 13006KT 2 1/2SM BR OVC002 12/10 A2987 RMK AO2 T01170100

METARs EXPIRÉS :
  • 221121Z AUTO 09007KT 040V130 5SM BR OVC003 12/11 A2987 RMK AO2 T01170106
  • 221054Z AUTO 14006KT 6SM BR OVC002 12/11 A2988 RMK AO2 SLP117 T01170106
  • 221028Z AUTO VRB06G16KT 3SM BR OVC002 12/10 A2988 RMK AO2 T01170100
  • 220954Z AUTO 15006KT 8SM OVC004 12/10 A2989 RMK AO2 SLP119 T01170100
  • 220942Z AUTO 15008KT 9SM OVC004 12/10 A2989 RMK AO2 T01170100
  • 220854Z AUTO 13007G15KT 10SM OVC006 12/10 A2989 RMK AO2 SLP119 T01220100 56014

TAF KJST
Valide du 22 à 12h jusqu'au 23 à 12h UTC


221129Z 2212/2312 15009G16KT 6SM -DZ BR OVC002 WS015/19035KT
FM221500 16008G16KT 4SM RA BR OVC007
FM222100 23008KT P6SM OVC020



MET'MAP, la Météo Aéronautique d'un coup d'oeil ! - Copyright ORBIFLY Décembre 2007 - Disclaimer

ORBIFLY MET'MAP TEAM :

Programmation & Développement : Alexandra Zaïnal
Conception & Développement : Baudouin d'Aumeries
Co-Programmation & Développement : Marc-Olivier Méhu
Soutien technique & logistique : Manuel Goepfert

Contact : metmap@orbifly.com




SOURCES & CREDITS :

   NOAA       Earth
Advisory